Time;durP1;ratioP1;P1;durP2;ratioP2;P2;SDS_P1;SDS_P2;PMS_P1;PMS_P2;Temp;Humidity;BMP_temperature;BMP_pressure;BME280_temperature;BME280_humidity;BME280_pressure;Samples;Min_cycle;Max_cycle;Signal;HPM_P1;HPM_P2
2022/09/15 00:01:24;;;;;;;4.13;1.60;;;16.90;99.90;;;;;;5034000;28;20195;-78
2022/09/15 00:03:51;;;;;;;5.35;1.30;;;16.90;99.90;;;;;;5034240;28;20201;-77
2022/09/15 00:06:20;;;;;;;3.28;1.30;;;16.90;99.90;;;;;;5032740;28;20207;-77
2022/09/15 00:08:46;;;;;;;12.23;1.80;;;16.90;99.90;;;;;;5033528;28;20615;-77
2022/09/15 00:11:17;;;;;;;4.63;1.42;;;16.80;99.90;;;;;;5033296;28;20210;-77
2022/09/15 00:13:45;;;;;;;1.63;1.27;;;16.70;99.90;;;;;;5032751;28;20217;-78
2022/09/15 00:16:13;;;;;;;3.50;1.13;;;16.70;99.90;;;;;;5034089;28;20220;-78
2022/09/15 00:18:40;;;;;;;5.47;1.20;;;16.70;99.90;;;;;;5033396;28;20586;-78
2022/09/15 00:21:08;;;;;;;9.23;2.05;;;16.70;99.90;;;;;;5033409;28;20190;-79
2022/09/15 00:23:37;;;;;;;5.32;1.35;;;16.60;99.90;;;;;;5033241;28;20202;-78
2022/09/15 00:26:08;;;;;;;4.28;1.48;;;16.60;99.90;;;;;;5033749;28;20214;-77
2022/09/15 00:28:35;;;;;;;2.92;1.23;;;16.60;99.90;;;;;;5033101;28;20220;-78
2022/09/15 00:31:05;;;;;;;2.85;1.05;;;16.50;99.90;;;;;;5033170;28;20207;-76
2022/09/15 00:33:32;;;;;;;2.47;1.15;;;16.50;99.90;;;;;;5033633;28;20217;-78
2022/09/15 00:36:02;;;;;;;5.97;1.08;;;16.50;99.90;;;;;;5032115;28;20615;-78
2022/09/15 00:38:30;;;;;;;4.82;1.63;;;16.50;99.90;;;;;;5013708;28;20211;-78
2022/09/15 00:40:59;;;;;;;5.93;1.58;;;16.50;99.90;;;;;;5013547;28;20238;-77
2022/09/15 00:43:46;;;;;;;3.78;1.20;;;16.50;99.90;;;;;;5012922;28;20204;-78
2022/09/15 00:46:13;;;;;;;4.20;1.13;;;16.50;99.90;;;;;;5023199;28;20213;-77
2022/09/15 00:48:43;;;;;;;4.57;1.25;;;16.50;99.90;;;;;;5032671;28;20199;-77
2022/09/15 00:51:14;;;;;;;2.85;1.13;;;16.40;99.90;;;;;;5033140;28;20211;-78
2022/09/15 00:53:42;;;;;;;5.25;1.23;;;16.40;99.90;;;;;;5032877;28;20218;-78
2022/09/15 00:56:12;;;;;;;3.45;1.00;;;16.40;99.90;;;;;;5031874;28;20226;-78
2022/09/15 00:58:44;;;;;;;4.23;1.40;;;16.40;99.90;;;;;;5032636;28;20201;-78
2022/09/15 01:01:14;;;;;;;2.63;1.23;;;16.40;99.90;;;;;;5032204;28;20199;-79
2022/09/15 01:03:41;;;;;;;5.30;1.43;;;16.40;99.90;;;;;;5031403;28;20213;-77
2022/09/15 01:06:12;;;;;;;3.55;0.90;;;16.40;99.90;;;;;;5031464;28;20230;-78
2022/09/15 01:08:44;;;;;;;4.22;1.10;;;16.40;76.90;;;;;;5032092;28;20230;-78
2022/09/15 01:11:15;;;;;;;4.88;1.50;;;16.40;76.80;;;;;;5032233;28;20213;-77
2022/09/15 01:13:42;;;;;;;2.80;1.08;;;16.40;68.40;;;;;;5032992;28;20317;-79
2022/09/15 01:16:16;;;;;;;4.07;1.35;;;16.50;43.70;;;;;;5032583;28;20217;-78
2022/09/15 01:18:56;;;;;;;1.70;1.05;;;16.50;49.20;;;;;;5032008;28;20345;-78
2022/09/15 01:21:34;;;;;;;3.50;1.20;;;16.50;46.30;;;;;;5032775;28;20194;-78
2022/09/15 01:24:40;;;;;;;4.10;1.10;;;16.50;47.60;;;;;;5032007;28;20191;-78
2022/09/15 01:27:16;;;;;;;5.47;1.17;;;16.50;46.30;;;;;;5032649;28;20504;-77
2022/09/15 01:30:06;;;;;;;4.93;1.30;;;16.50;30.60;;;;;;5032463;28;20217;-76
2022/09/15 01:33:05;;;;;;;2.53;0.98;;;16.50;1.00;;;;;;5031744;28;20198;-78
2022/09/15 01:35:57;;;;;;;4.88;0.95;;;16.50;1.00;;;;;;5031578;28;20327;-77
2022/09/15 01:38:46;;;;;;;2.90;1.00;;;16.60;1.00;;;;;;5023668;28;20198;-76
2022/09/15 01:41:16;;;;;;;2.63;0.88;;;16.60;1.00;;;;;;5032212;28;20281;-77
2022/09/15 01:43:50;;;;;;;3.83;1.25;;;16.50;1.00;;;;;;5032506;28;20597;-79
2022/09/15 01:46:21;;;;;;;3.17;0.77;;;16.50;1.00;;;;;;5030948;28;20218;-77
2022/09/15 01:48:52;;;;;;;1.50;0.90;;;16.50;1.00;;;;;;5032241;28;20589;-77
2022/09/15 01:51:19;;;;;;;3.28;0.90;;;16.40;1.00;;;;;;5031482;28;20191;-77
2022/09/15 01:53:47;;;;;;;3.88;0.98;;;16.50;1.00;;;;;;5031848;28;20213;-78
2022/09/15 01:56:14;;;;;;;2.08;0.98;;;16.40;1.00;;;;;;5032096;28;20281;-77
2022/09/15 01:58:41;;;;;;;1.90;0.75;;;16.40;1.00;;;;;;5031318;28;20321;-79
2022/09/15 02:01:13;;;;;;;1.92;0.93;;;16.50;1.00;;;;;;5031898;28;20206;-78
2022/09/15 02:03:49;;;;;;;2.30;0.82;;;16.50;1.00;;;;;;5031899;28;20332;-78
2022/09/15 02:06:22;;;;;;;0.82;0.70;;;16.40;1.00;;;;;;5030269;28;20216;-77
2022/09/15 02:08:53;;;;;;;1.33;0.80;;;16.50;1.00;;;;;;5031410;28;20202;-77
2022/09/15 02:11:27;;;;;;;5.25;1.15;;;16.40;1.00;;;;;;5031522;28;20210;-78
2022/09/15 02:14:02;;;;;;;2.05;0.88;;;16.40;1.00;;;;;;5030173;28;20198;-80
2022/09/15 02:16:33;;;;;;;2.55;0.95;;;16.50;1.00;;;;;;5032029;28;20194;-78
2022/09/15 02:19:10;;;;;;;3.45;0.80;;;16.50;1.00;;;;;;5030907;28;20195;-77
2022/09/15 02:21:49;;;;;;;3.55;0.90;;;16.50;1.00;;;;;;5031013;28;20217;-78
2022/09/15 02:24:20;;;;;;;2.80;0.88;;;16.50;1.00;;;;;;5031098;28;20787;-78
2022/09/15 02:26:49;;;;;;;2.75;1.17;;;16.60;1.00;;;;;;5030949;28;20496;-77
2022/09/15 02:29:20;;;;;;;3.35;1.08;;;16.60;1.00;;;;;;5031535;28;20261;-78
2022/09/15 02:31:48;;;;;;;3.25;0.73;;;16.60;1.00;;;;;;5030941;28;20217;-77
2022/09/15 02:34:21;;;;;;;3.00;0.95;;;16.60;12.70;;;;;;5030669;28;20245;-78
2022/09/15 02:36:49;;;;;;;4.47;1.30;;;16.60;28.70;;;;;;5031339;28;20700;-78
2022/09/15 02:39:20;;;;;;;2.95;1.02;;;16.60;28.40;;;;;;5031786;28;20204;-76
2022/09/15 02:41:47;;;;;;;3.15;0.93;;;16.60;2.30;;;;;;5030178;28;20206;-78
2022/09/15 02:44:15;;;;;;;3.33;0.90;;;16.60;8.70;;;;;;5031760;28;20280;-77
2022/09/15 02:46:42;;;;;;;2.40;0.73;;;16.60;11.30;;;;;;5030667;28;20301;-77
2022/09/15 02:49:09;;;;;;;3.70;1.10;;;16.60;1.50;;;;;;5030741;28;20626;-78
2022/09/15 02:51:37;;;;;;;2.85;1.00;;;16.50;4.90;;;;;;5031622;28;20213;-76
2022/09/15 02:54:04;;;;;;;2.00;0.95;;;16.60;1.00;;;;;;5030794;28;20216;-77
2022/09/15 02:56:31;;;;;;;3.47;1.10;;;16.50;10.30;;;;;;5030840;28;20260;-77
2022/09/15 02:58:58;;;;;;;5.00;1.35;;;16.50;1.00;;;;;;5030755;28;20202;-78
2022/09/15 03:01:31;;;;;;;2.55;0.90;;;16.50;1.00;;;;;;5031775;28;20359;-79
2022/09/15 03:03:58;;;;;;;4.82;1.10;;;16.50;1.00;;;;;;5030715;28;20244;-78
2022/09/15 03:06:28;;;;;;;2.95;0.88;;;16.50;1.00;;;;;;5031319;28;20202;-77
2022/09/15 03:08:59;;;;;;;3.80;1.00;;;16.50;1.00;;;;;;5030697;28;20603;-76
2022/09/15 03:11:27;;;;;;;2.45;1.10;;;16.50;1.00;;;;;;5030821;28;20237;-77
2022/09/15 03:13:55;;;;;;;1.73;0.88;;;16.40;1.00;;;;;;5031583;28;20194;-76
2022/09/15 03:16:23;;;;;;;2.85;1.00;;;16.40;1.00;;;;;;5030076;28;20202;-76
2022/09/15 03:18:50;;;;;;;2.42;0.80;;;16.40;1.00;;;;;;5031578;28;20629;-76
2022/09/15 03:21:17;;;;;;;2.72;0.80;;;16.40;1.00;;;;;;5030866;28;20611;-76
2022/09/15 03:23:45;;;;;;;4.63;1.00;;;16.40;1.00;;;;;;5031031;28;20630;-76
2022/09/15 03:26:13;;;;;;;1.52;0.80;;;16.40;1.00;;;;;;5034827;28;20194;-76
2022/09/15 03:28:40;;;;;;;4.13;0.90;;;16.40;1.00;;;;;;5034529;28;20519;-75
2022/09/15 03:31:08;;;;;;;3.90;0.98;;;16.40;1.00;;;;;;5033676;28;20615;-77
2022/09/15 03:33:35;;;;;;;3.63;1.13;;;16.40;1.00;;;;;;5034829;28;20198;-77
2022/09/15 03:36:03;;;;;;;2.50;0.95;;;16.40;1.00;;;;;;5034583;28;20225;-77
2022/09/15 03:38:30;;;;;;;3.42;1.13;;;16.40;1.00;;;;;;5033898;28;20206;-77
2022/09/15 03:40:58;;;;;;;3.97;1.20;;;16.40;1.00;;;;;;5034501;28;20232;-77
2022/09/15 03:43:27;;;;;;;4.13;1.00;;;16.40;1.00;;;;;;5034206;28;20525;-77
2022/09/15 03:45:54;;;;;;;5.00;1.08;;;16.40;1.00;;;;;;5033277;28;20320;-76
2022/09/15 03:48:22;;;;;;;2.05;0.98;;;16.40;1.00;;;;;;5033857;28;20198;-77
2022/09/15 03:50:48;;;;;;;2.28;0.80;;;16.40;1.00;;;;;;5034850;28;20241;-77
2022/09/15 03:53:16;;;;;;;1.95;0.93;;;16.30;6.20;;;;;;5033632;28;20203;-77
2022/09/15 03:55:44;;;;;;;1.80;0.75;;;16.30;21.80;;;;;;5034158;28;20853;-77
2022/09/15 03:58:11;;;;;;;3.00;1.08;;;16.30;45.00;;;;;;5033120;28;20771;-77
2022/09/15 04:00:39;;;;;;;3.05;1.02;;;16.30;59.20;;;;;;5034421;28;20199;-77
2022/09/15 04:03:06;;;;;;;2.40;0.80;;;16.20;67.60;;;;;;5033403;28;20207;-77
2022/09/15 04:05:33;;;;;;;0.90;0.60;;;16.20;82.00;;;;;;5033039;28;20195;-76
2022/09/15 04:08:00;;;;;;;4.30;1.25;;;16.20;90.30;;;;;;5034016;28;20234;-76
2022/09/15 04:10:28;;;;;;;2.05;0.77;;;16.10;94.90;;;;;;5033146;28;20303;-77
2022/09/15 04:12:55;;;;;;;5.32;1.38;;;16.10;99.00;;;;;;5033561;28;20210;-76
2022/09/15 04:15:22;;;;;;;6.32;1.13;;;16.20;99.90;;;;;;5031454;28;20218;-76
2022/09/15 04:17:50;;;;;;;4.22;1.38;;;16.30;99.90;;;;;;5031365;28;20207;-77
2022/09/15 04:20:18;;;;;;;3.92;1.50;;;16.20;99.90;;;;;;5029280;28;20221;-77
2022/09/15 04:22:45;;;;;;;4.28;1.30;;;16.20;99.90;;;;;;5026311;28;20503;-77
2022/09/15 04:25:12;;;;;;;4.93;1.30;;;16.10;99.90;;;;;;5027436;28;20209;-77
2022/09/15 04:27:39;;;;;;;4.05;1.23;;;16.10;99.90;;;;;;5031329;28;20194;-77
2022/09/15 04:30:07;;;;;;;3.40;1.20;;;16.00;99.90;;;;;;5033714;28;20254;-77
2022/09/15 04:32:35;;;;;;;4.40;1.45;;;15.90;99.90;;;;;;5033543;28;20206;-76
2022/09/15 04:35:04;;;;;;;2.97;1.10;;;15.90;99.90;;;;;;5032359;28;20227;-77
2022/09/15 04:37:32;;;;;;;4.82;1.20;;;15.80;99.90;;;;;;5032869;28;20206;-78
2022/09/15 04:39:59;;;;;;;4.20;1.55;;;15.80;99.90;;;;;;5033510;28;20202;-78
2022/09/15 04:42:26;;;;;;;9.60;1.48;;;15.70;99.90;;;;;;5032266;28;20536;-77
2022/09/15 04:44:53;;;;;;;4.07;1.05;;;15.60;99.90;;;;;;5033611;28;20240;-77
2022/09/15 04:47:19;;;;;;;2.45;1.10;;;15.60;99.90;;;;;;5032836;28;20205;-78
2022/09/15 04:49:46;;;;;;;2.42;0.95;;;15.60;99.90;;;;;;5032595;28;20202;-77
2022/09/15 04:52:14;;;;;;;6.13;1.38;;;15.50;99.90;;;;;;5033332;28;20195;-78
2022/09/15 04:54:41;;;;;;;3.30;1.00;;;15.50;99.90;;;;;;5031947;28;20210;-77
2022/09/15 04:57:09;;;;;;;6.03;1.63;;;15.50;99.90;;;;;;5032310;28;20218;-77
2022/09/15 04:59:36;;;;;;;4.23;1.50;;;15.40;99.90;;;;;;5032214;28;20716;-78
2022/09/15 05:02:03;;;;;;;3.22;1.20;;;15.40;99.90;;;;;;5032264;28;20562;-78
2022/09/15 05:04:30;;;;;;;5.57;1.45;;;15.40;99.90;;;;;;5031932;28;20211;-77
2022/09/15 05:06:57;;;;;;;5.82;2.15;;;15.40;99.90;;;;;;5032922;28;20216;-77
2022/09/15 05:09:28;;;;;;;4.67;1.10;;;15.40;99.90;;;;;;5032406;28;20198;-77
2022/09/15 05:11:55;;;;;;;9.20;1.58;;;15.40;99.90;;;;;;5032395;28;20627;-78
2022/09/15 05:14:22;;;;;;;7.75;1.90;;;15.40;99.90;;;;;;5031942;28;20518;-76
2022/09/15 05:16:49;;;;;;;7.45;1.55;;;15.50;99.90;;;;;;5031961;28;20521;-76
2022/09/15 05:19:16;;;;;;;6.07;1.50;;;15.40;99.90;;;;;;5032264;28;20776;-75
2022/09/15 05:21:43;;;;;;;3.50;1.37;;;15.50;99.90;;;;;;5032746;28;20194;-75
2022/09/15 05:24:09;;;;;;;3.50;1.30;;;15.50;99.90;;;;;;5032288;28;20631;-76
2022/09/15 05:26:38;;;;;;;4.07;1.10;;;15.60;99.90;;;;;;5032671;28;20587;-75
2022/09/15 05:29:05;;;;;;;4.97;1.23;;;15.60;99.90;;;;;;5032255;28;20226;-76
2022/09/15 05:31:33;;;;;;;8.00;1.83;;;15.70;99.90;;;;;;5031910;28;20198;-76
2022/09/15 05:34:02;;;;;;;9.77;2.03;;;15.70;99.90;;;;;;5032490;28;20595;-76
2022/09/15 05:36:29;;;;;;;6.30;1.53;;;15.90;99.90;;;;;;5030782;28;20227;-76
2022/09/15 05:38:57;;;;;;;4.78;1.45;;;15.90;99.90;;;;;;5032378;28;20212;-76
2022/09/15 05:41:24;;;;;;;8.20;1.43;;;16.00;99.90;;;;;;5031748;28;20595;-75
2022/09/15 05:43:55;;;;;;;6.72;1.75;;;16.00;99.90;;;;;;5031988;28;20195;-76
2022/09/15 05:46:24;;;;;;;7.27;2.07;;;16.00;99.90;;;;;;5032435;28;20198;-75
2022/09/15 05:48:53;;;;;;;6.20;1.98;;;16.00;99.90;;;;;;5031421;28;20213;-77
2022/09/15 05:51:20;;;;;;;6.43;1.45;;;15.90;99.90;;;;;;5031659;28;20614;-76
2022/09/15 05:53:49;;;;;;;4.43;1.35;;;15.90;99.90;;;;;;5032206;28;20191;-76
2022/09/15 05:56:17;;;;;;;8.77;1.50;;;15.90;99.90;;;;;;5032146;28;20243;-77
2022/09/15 05:58:45;;;;;;;4.95;1.40;;;15.90;99.90;;;;;;5030772;28;20202;-77
2022/09/15 06:01:16;;;;;;;8.80;1.93;;;15.90;99.90;;;;;;5027861;28;20195;-76
2022/09/15 06:03:43;;;;;;;6.53;1.20;;;15.90;99.90;;;;;;5022509;28;20216;-76
2022/09/15 06:06:11;;;;;;;4.45;1.50;;;15.90;99.90;;;;;;5031420;28;20201;-77
2022/09/15 06:08:40;;;;;;;5.43;1.30;;;15.90;99.90;;;;;;5032133;28;20199;-78
2022/09/15 06:11:08;;;;;;;3.88;1.40;;;15.90;99.90;;;;;;5031025;28;20186;-77
2022/09/15 06:13:35;;;;;;;3.40;1.00;;;15.90;99.90;;;;;;5031620;28;20276;-77
2022/09/15 06:16:04;;;;;;;4.57;1.13;;;15.90;99.90;;;;;;5031204;28;20231;-77
2022/09/15 06:18:33;;;;;;;3.38;1.10;;;15.90;99.90;;;;;;5031782;28;20206;-76
2022/09/15 06:21:04;;;;;;;4.22;1.00;;;15.90;99.90;;;;;;5030620;28;20233;-77
2022/09/15 06:23:31;;;;;;;3.92;1.15;;;15.90;99.90;;;;;;5031478;28;20607;-77
2022/09/15 06:26:07;;;;;;;7.07;1.02;;;15.90;99.90;;;;;;5031244;28;20194;-76
2022/09/15 06:28:34;;;;;;;2.77;0.73;;;16.00;99.90;;;;;;5031215;28;20656;-76
2022/09/15 06:31:01;;;;;;;5.53;1.13;;;16.00;99.90;;;;;;5031663;28;20202;-76
2022/09/15 06:33:27;;;;;;;3.05;0.80;;;16.00;99.60;;;;;;5030943;28;20281;-76
2022/09/15 06:35:56;;;;;;;4.95;1.25;;;16.10;99.90;;;;;;5031851;28;20214;-77
2022/09/15 06:38:23;;;;;;;4.90;1.17;;;16.10;99.90;;;;;;5031215;28;20202;-77
2022/09/15 06:40:57;;;;;;;3.65;1.33;;;16.10;99.90;;;;;;5029533;28;20641;-76
2022/09/15 06:43:24;;;;;;;2.53;1.05;;;16.20;99.90;;;;;;5032867;28;20200;-76
2022/09/15 06:45:51;;;;;;;3.00;1.20;;;16.20;99.90;;;;;;5025584;28;20206;-77
2022/09/15 06:48:18;;;;;;;3.38;0.98;;;16.20;99.90;;;;;;5029916;28;20202;-77
2022/09/15 06:50:52;;;;;;;6.95;1.55;;;16.30;99.90;;;;;;5028194;28;20392;-76
2022/09/15 06:53:21;;;;;;;5.25;1.60;;;16.30;99.90;;;;;;5031068;28;20230;-76
2022/09/15 06:55:48;;;;;;;5.57;1.38;;;16.20;82.70;;;;;;5029116;28;20235;-77
2022/09/15 06:58:14;;;;;;;3.05;1.10;;;16.20;73.80;;;;;;5027585;28;20199;-78
2022/09/15 07:00:41;;;;;;;3.65;1.20;;;16.30;25.40;;;;;;5035304;28;20570;-78
2022/09/15 07:03:08;;;;;;;7.07;1.17;;;16.30;6.80;;;;;;5034916;28;20208;-77
2022/09/15 07:05:35;;;;;;;5.97;1.42;;;16.30;1.00;;;;;;5035104;28;20630;-76
2022/09/15 07:08:03;;;;;;;6.50;1.52;;;16.30;16.60;;;;;;5034975;28;20199;-78
2022/09/15 07:10:31;;;;;;;6.15;1.42;;;16.30;7.10;;;;;;5034898;28;20218;-77
2022/09/15 07:13:00;;;;;;;3.53;1.40;;;16.30;19.20;;;;;;5035323;28;20285;-78
2022/09/15 07:15:27;;;;;;;3.97;1.13;;;16.40;21.80;;;;;;5033804;28;20213;-78
2022/09/15 07:17:53;;;;;;;9.32;1.55;;;16.30;31.60;;;;;;5035169;28;20229;-78
2022/09/15 07:20:20;;;;;;;4.07;1.60;;;16.40;1.00;;;;;;5035003;28;20726;-77
2022/09/15 07:22:47;;;;;;;5.20;1.30;;;16.40;1.00;;;;;;5034035;28;20290;-77
2022/09/15 07:25:14;;;;;;;5.95;1.58;;;16.50;1.00;;;;;;5034244;28;20297;-77
2022/09/15 07:27:42;;;;;;;4.67;1.20;;;16.50;1.00;;;;;;5033351;28;20211;-77
2022/09/15 07:30:10;;;;;;;6.38;1.27;;;16.50;1.00;;;;;;5054256;28;20221;-76
2022/09/15 07:32:37;;;;;;;6.85;1.73;;;16.60;1.00;;;;;;5046408;28;20208;-77
2022/09/15 07:35:04;;;;;;;3.70;1.42;;;16.60;1.00;;;;;;5024074;28;20524;-76
2022/09/15 07:37:32;;;;;;;7.10;1.52;;;16.60;1.00;;;;;;5032972;28;20257;-75
2022/09/15 07:39:59;;;;;;;9.10;1.80;;;16.70;1.00;;;;;;5034257;28;20684;-76
2022/09/15 07:42:25;;;;;;;5.65;1.20;;;16.80;1.00;;;;;;5034525;28;20293;-74
2022/09/15 07:44:54;;;;;;;10.20;1.58;;;16.90;1.00;;;;;;5033276;28;20206;-77
2022/09/15 07:47:21;;;;;;;4.40;1.20;;;17.00;1.00;;;;;;5049146;28;20202;-77
2022/09/15 07:49:49;;;;;;;5.93;1.42;;;17.10;1.00;;;;;;5053401;28;20187;-75
2022/09/15 07:52:16;;;;;;;4.50;0.85;;;17.10;1.00;;;;;;5033452;28;20240;-76
2022/09/15 07:54:42;;;;;;;4.88;1.20;;;17.10;99.90;;;;;;5033888;28;20289;-74
2022/09/15 07:57:09;;;;;;;4.55;1.05;;;17.10;1.00;;;;;;5032798;28;20654;-77
2022/09/15 07:59:36;;;;;;;6.25;1.55;;;17.10;99.90;;;;;;5033435;28;20611;-77
2022/09/15 08:02:04;;;;;;;5.20;1.33;;;17.10;99.90;;;;;;5033830;28;20289;-76
2022/09/15 08:04:31;;;;;;;5.78;1.40;;;17.10;99.90;;;;;;5033098;28;20207;-76
2022/09/15 08:06:58;;;;;;;3.88;1.20;;;17.10;1.00;;;;;;5034226;28;20398;-78
2022/09/15 08:09:25;;;;;;;4.97;1.30;;;17.20;99.90;;;;;;5033689;28;20211;-75
2022/09/15 08:11:51;;;;;;;3.30;1.10;;;17.30;99.90;;;;;;5032225;28;20645;-75
2022/09/15 08:14:18;;;;;;;2.72;1.02;;;17.40;1.00;;;;;;5033249;28;20268;-75
2022/09/15 08:16:45;;;;;;;3.72;1.00;;;17.50;1.00;;;;;;5033582;28;20982;-75
2022/09/15 08:19:13;;;;;;;5.97;1.13;;;17.60;1.00;;;;;;5033092;28;20209;-76
2022/09/15 08:21:40;;;;;;;3.50;1.08;;;17.70;99.90;;;;;;5033896;28;20198;-76
2022/09/15 08:24:09;;;;;;;6.03;1.00;;;17.80;1.00;;;;;;5032888;28;20630;-77
2022/09/15 08:26:37;;;;;;;4.60;1.50;;;17.80;1.00;;;;;;5032011;28;20263;-77
2022/09/15 08:29:04;;;;;;;6.70;1.40;;;17.90;99.90;;;;;;5033027;28;20230;-77
2022/09/15 08:31:31;;;;;;;8.88;1.30;;;17.90;1.00;;;;;;5033751;28;20198;-78
2022/09/15 08:34:02;;;;;;;4.68;1.42;;;17.90;1.00;;;;;;5037059;28;20497;-77
2022/09/15 08:36:31;;;;;;;7.57;1.73;;;17.90;1.00;;;;;;5053546;28;20621;-76
2022/09/15 08:38:57;;;;;;;6.75;1.55;;;17.90;99.90;;;;;;5053376;28;20671;-76
2022/09/15 08:41:28;;;;;;;3.63;1.48;;;17.90;99.90;;;;;;5043024;28;20217;-76
2022/09/15 08:44:00;;;;;;;6.20;1.67;;;17.80;1.00;;;;;;5032853;28;20197;-77
2022/09/15 08:46:36;;;;;;;5.63;1.48;;;17.80;99.90;;;;;;5032714;28;20209;-77
2022/09/15 08:49:09;;;;;;;5.65;1.35;;;17.80;99.90;;;;;;5033202;28;20191;-77
2022/09/15 08:51:43;;;;;;;4.90;1.42;;;17.90;89.50;;;;;;5032950;28;20286;-77
2022/09/15 08:54:18;;;;;;;3.13;1.00;;;17.90;99.90;;;;;;5032441;28;20703;-79
2022/09/15 08:56:45;;;;;;;4.22;1.40;;;17.90;1.00;;;;;;5033072;28;20547;-76
2022/09/15 08:59:17;;;;;;;9.20;1.83;;;18.10;99.90;;;;;;5033363;28;20209;-77
2022/09/15 09:01:55;;;;;;;7.75;1.58;;;18.20;99.90;;;;;;5031936;28;20219;-76
2022/09/15 09:04:40;;;;;;;7.10;1.55;;;18.30;99.90;;;;;;5032905;28;20202;-76
2022/09/15 09:07:22;;;;;;;3.45;1.10;;;18.50;1.00;;;;;;5022562;28;20202;-77
2022/09/15 09:09:54;;;;;;;6.43;1.20;;;18.50;1.00;;;;;;5032621;28;20205;-77
2022/09/15 09:12:36;;;;;;;3.78;1.00;;;18.60;1.00;;;;;;5034180;28;20229;-77
2022/09/15 09:15:18;;;;;;;5.13;1.00;;;18.70;1.00;;;;;;5049640;28;20612;-77
2022/09/15 09:18:09;;;;;;;6.30;1.20;;;18.70;99.90;;;;;;5052732;28;20210;-78
2022/09/15 09:20:48;;;;;;;4.20;1.30;;;18.80;99.90;;;;;;5040885;28;20205;-77
2022/09/15 09:23:21;;;;;;;5.80;1.10;;;18.80;99.90;;;;;;5031698;28;20630;-77
2022/09/15 09:25:48;;;;;;;5.32;1.10;;;18.80;1.00;;;;;;5033472;28;20191;-78
2022/09/15 09:28:28;;;;;;;10.35;1.90;;;18.80;1.00;;;;;;5032459;28;20221;-75
2022/09/15 09:30:59;;;;;;;3.92;1.08;;;18.90;1.00;;;;;;5031360;28;20839;-76
2022/09/15 09:33:29;;;;;;;3.50;1.00;;;18.80;1.00;;;;;;5032562;28;20237;-75
2022/09/15 09:36:01;;;;;;;5.78;1.10;;;18.90;1.00;;;;;;5031711;28;20201;-76
2022/09/15 09:38:32;;;;;;;3.60;0.90;;;19.00;21.80;;;;;;5032260;28;20195;-75
2022/09/15 09:40:59;;;;;;;6.45;1.17;;;19.30;7.00;;;;;;5032550;28;20222;-76
2022/09/15 09:43:28;;;;;;;6.10;1.45;;;19.40;20.90;;;;;;5031071;28;20584;-76
2022/09/15 09:45:55;;;;;;;3.53;1.40;;;19.50;1.00;;;;;;5032664;28;20260;-78
2022/09/15 09:48:25;;;;;;;5.30;1.10;;;19.50;1.00;;;;;;5031990;28;20221;-77
2022/09/15 09:50:53;;;;;;;4.68;1.00;;;19.40;1.00;;;;;;5031474;28;20282;-76
2022/09/15 09:53:26;;;;;;;4.45;1.67;;;19.40;1.00;;;;;;5031670;28;20654;-77
2022/09/15 09:56:14;;;;;;;6.20;1.25;;;19.40;1.00;;;;;;5031759;28;20749;-77
2022/09/15 09:58:41;;;;;;;5.45;1.27;;;19.30;1.00;;;;;;5030420;28;20686;-76
2022/09/15 10:01:10;;;;;;;4.32;0.90;;;19.40;1.00;;;;;;5032351;28;20195;-78
2022/09/15 10:03:37;;;;;;;5.93;0.93;;;19.40;1.00;;;;;;5031517;28;20230;-78
2022/09/15 10:06:06;;;;;;;2.13;0.65;;;19.40;1.00;;;;;;5030823;28;20595;-76
2022/09/15 10:08:35;;;;;;;2.53;0.75;;;19.50;1.00;;;;;;5031847;28;20276;-78
2022/09/15 10:11:06;;;;;;;2.83;0.98;;;19.50;1.00;;;;;;5030916;28;20279;-78
2022/09/15 10:13:34;;;;;;;2.25;0.85;;;19.60;1.00;;;;;;5031949;28;20590;-78
2022/09/15 10:16:05;;;;;;;2.78;0.75;;;19.80;1.00;;;;;;5031348;28;20210;-78
2022/09/15 10:18:34;;;;;;;1.58;0.70;;;20.00;1.00;;;;;;5030965;28;20638;-76
2022/09/15 10:21:03;;;;;;;3.10;0.90;;;20.10;1.00;;;;;;5031962;28;20483;-75
2022/09/15 10:23:31;;;;;;;3.78;1.08;;;20.20;1.00;;;;;;5031568;28;20213;-75
2022/09/15 10:26:21;;;;;;;2.55;1.00;;;20.30;1.00;;;;;;5031508;28;20421;-76
2022/09/15 10:29:11;;;;;;;3.50;0.75;;;20.50;1.00;;;;;;5031718;28;20221;-75
2022/09/15 10:31:38;;;;;;;4.05;1.00;;;20.60;1.00;;;;;;5030949;28;20733;-76
2022/09/15 10:34:24;;;;;;;8.75;1.15;;;20.60;1.00;;;;;;5030267;28;20205;-76
2022/09/15 10:36:54;;;;;;;4.82;1.00;;;20.70;1.00;;;;;;5031749;28;20225;-76
2022/09/15 10:39:30;;;;;;;3.35;1.25;;;20.70;1.00;;;;;;5030793;28;20195;-76
2022/09/15 10:42:10;;;;;;;4.82;0.80;;;20.90;1.00;;;;;;5031450;28;20187;-75
2022/09/15 10:44:46;;;;;;;4.43;0.88;;;20.90;1.00;;;;;;5031976;28;20197;-76
2022/09/15 10:47:21;;;;;;;3.42;1.05;;;20.90;1.00;;;;;;5030407;28;20483;-76
2022/09/15 10:49:59;;;;;;;6.03;1.20;;;20.90;1.00;;;;;;5031526;28;20191;-77
2022/09/15 10:52:36;;;;;;;5.18;1.23;;;20.80;1.00;;;;;;5032057;28;20221;-76
2022/09/15 10:55:16;;;;;;;3.95;1.15;;;21.00;1.00;;;;;;5029890;28;20591;-75
2022/09/15 10:58:03;;;;;;;2.08;1.00;;;21.10;1.00;;;;;;5030995;28;20536;-76
2022/09/15 11:00:39;;;;;;;3.45;1.00;;;21.00;1.00;;;;;;5011118;28;20187;-75
2022/09/15 11:03:27;;;;;;;4.75;1.10;;;20.80;1.00;;;;;;5014781;28;20195;-77
2022/09/15 11:06:09;;;;;;;3.28;1.00;;;20.70;1.00;;;;;;5031281;28;20191;-76
2022/09/15 11:09:02;;;;;;;5.05;1.60;;;20.60;1.00;;;;;;5030200;28;20256;-77
2022/09/15 11:11:40;;;;;;;5.25;1.30;;;20.30;1.00;;;;;;5031372;28;20226;-77
2022/09/15 11:14:26;;;;;;;7.65;1.50;;;20.20;1.00;;;;;;5029985;28;20199;-76
2022/09/15 11:17:06;;;;;;;6.75;1.40;;;20.00;99.90;;;;;;5031234;28;20229;-77
2022/09/15 11:19:50;;;;;;;4.57;1.17;;;19.80;1.00;;;;;;5030684;28;20195;-76
2022/09/15 11:22:20;;;;;;;4.75;1.23;;;19.60;1.00;;;;;;5030505;28;20195;-77
2022/09/15 11:24:51;;;;;;;6.63;1.48;;;19.30;1.00;;;;;;5031227;28;20261;-77
2022/09/15 11:27:23;;;;;;;3.88;1.23;;;19.40;1.00;;;;;;5031403;28;20191;-77
2022/09/15 11:30:02;;;;;;;6.18;1.52;;;19.30;1.00;;;;;;5030094;28;20288;-76
2022/09/15 11:32:34;;;;;;;5.50;1.02;;;19.30;1.00;;;;;;5031043;28;20190;-77
2022/09/15 11:35:16;;;;;;;5.10;1.48;;;19.20;99.90;;;;;;5030112;28;20756;-77
2022/09/15 11:37:47;;;;;;;4.85;1.27;;;19.20;1.00;;;;;;5030694;28;20761;-76
2022/09/15 11:40:20;;;;;;;5.38;1.42;;;19.10;1.00;;;;;;5030932;28;20186;-78
2022/09/15 11:42:53;;;;;;;4.43;1.30;;;19.10;1.00;;;;;;5029746;28;20202;-76
2022/09/15 11:45:29;;;;;;;4.85;0.98;;;19.20;1.00;;;;;;5032681;28;20199;-77
2022/09/15 11:47:59;;;;;;;6.53;1.15;;;19.20;98.70;;;;;;5032774;28;20198;-77
2022/09/15 11:50:30;;;;;;;4.95;0.95;;;19.20;1.00;;;;;;5033110;28;20304;-76
2022/09/15 11:53:02;;;;;;;2.92;1.02;;;19.30;1.00;;;;;;5034554;28;20201;-77
2022/09/15 11:55:35;;;;;;;5.18;1.13;;;19.50;1.00;;;;;;5033852;28;20199;-77
2022/09/15 11:58:18;;;;;;;4.47;1.23;;;19.70;1.00;;;;;;5033572;28;20211;-77
2022/09/15 12:00:54;;;;;;;4.97;1.20;;;20.00;1.00;;;;;;5034078;28;20349;-78
2022/09/15 12:03:27;;;;;;;4.68;1.10;;;20.20;1.00;;;;;;5033236;28;20289;-77
2022/09/15 12:06:01;;;;;;;5.63;1.27;;;20.20;1.00;;;;;;5033960;28;20182;-78
2022/09/15 12:08:33;;;;;;;7.38;1.40;;;20.10;1.00;;;;;;5014674;28;20237;-76
2022/09/15 12:11:03;;;;;;;4.55;1.13;;;19.90;1.00;;;;;;5013268;28;20210;-78
2022/09/15 12:13:31;;;;;;;2.33;1.30;;;19.80;1.00;;;;;;5014125;28;20662;-77
2022/09/15 12:16:00;;;;;;;3.08;1.02;;;19.60;1.00;;;;;;5031830;28;20282;-76
2022/09/15 12:18:33;;;;;;;4.97;1.10;;;19.50;1.00;;;;;;5033203;28;20226;-77
2022/09/15 12:21:06;;;;;;;6.22;1.63;;;19.50;1.00;;;;;;5033398;28;20664;-77
2022/09/15 12:23:37;;;;;;;4.22;1.30;;;19.50;1.00;;;;;;5033507;28;20210;-76
2022/09/15 12:26:13;;;;;;;7.20;1.50;;;19.50;1.00;;;;;;5013298;28;20208;-78
2022/09/15 12:28:53;;;;;;;6.00;1.20;;;19.40;1.00;;;;;;5014054;28;20231;-78
2022/09/15 12:31:30;;;;;;;5.35;1.30;;;19.40;1.00;;;;;;5018956;28;20202;-77
2022/09/15 12:33:59;;;;;;;3.45;1.30;;;19.40;1.00;;;;;;5033222;28;20202;-77
2022/09/15 12:36:39;;;;;;;5.28;1.25;;;19.40;1.00;;;;;;5033729;28;20202;-77
2022/09/15 12:39:24;;;;;;;2.85;1.30;;;19.60;1.00;;;;;;5032516;28;20264;-76
2022/09/15 12:41:53;;;;;;;4.28;1.00;;;19.80;1.00;;;;;;5033164;28;20214;-77
2022/09/15 12:44:25;;;;;;;7.38;1.30;;;19.90;1.00;;;;;;5032787;28;20218;-77
2022/09/15 12:46:56;;;;;;;6.20;1.48;;;19.80;1.00;;;;;;5033004;28;20202;-79
2022/09/15 12:49:29;;;;;;;7.13;1.67;;;19.60;1.00;;;;;;5033298;28;20206;-82
2022/09/15 12:51:58;;;;;;;8.23;1.48;;;19.30;1.00;;;;;;5035031;28;20219;-80
2022/09/15 12:54:29;;;;;;;3.40;1.10;;;19.00;99.90;;;;;;5034005;28;20217;-82
2022/09/15 12:56:58;;;;;;;6.85;1.20;;;18.50;1.00;;;;;;5033017;28;20463;-81
2022/09/15 12:59:27;;;;;;;5.15;1.20;;;18.20;99.90;;;;;;5033943;28;20199;-80
2022/09/15 13:01:56;;;;;;;4.70;1.30;;;18.10;1.00;;;;;;5033121;28;20202;-80
2022/09/15 13:04:53;;;;;;;8.10;1.75;;;17.90;8.80;;;;;;5033397;28;20206;-80
2022/09/15 13:07:54;;;;;;;5.57;1.13;;;17.90;75.90;;;;;;5032722;28;20278;-79
2022/09/15 13:10:35;;;;;;;5.97;1.60;;;17.90;51.40;;;;;;5032341;28;20297;-79
2022/09/15 13:13:20;;;;;;;7.28;1.23;;;17.90;1.00;;;;;;5033140;28;20273;-78